createdAt,value
2023-04-27T00:01:12.122Z,7.20
2023-04-27T00:06:14.078Z,7.20
2023-04-27T00:11:16.325Z,7.20
2023-04-27T00:16:18.347Z,7.20
2023-04-27T00:21:20.278Z,7.10
2023-04-27T00:26:22.531Z,7.00
2023-04-27T00:31:24.474Z,7.10
2023-04-27T00:36:27.179Z,7.00
2023-04-27T00:41:29.072Z,7.10
2023-04-27T00:46:31.086Z,7.10
2023-04-27T00:51:33.063Z,7.10
2023-04-27T00:56:34.926Z,7.10
2023-04-27T01:01:36.824Z,7.10
2023-04-27T01:06:39.314Z,7.00
2023-04-27T01:11:41.141Z,6.90
2023-04-27T01:16:43.051Z,6.80
2023-04-27T01:21:44.888Z,6.70
2023-04-27T01:26:46.774Z,6.70
2023-04-27T01:31:48.643Z,6.70
2023-04-27T01:36:50.651Z,6.70
2023-04-27T01:41:52.551Z,6.70
2023-04-27T01:46:54.393Z,6.70
2023-04-27T01:51:56.481Z,6.70
2023-04-27T01:56:58.749Z,6.60
2023-04-27T02:02:00.771Z,6.60
2023-04-27T02:07:05.415Z,6.50
2023-04-27T02:12:07.681Z,6.40
2023-04-27T02:17:09.771Z,6.30
2023-04-27T02:22:11.623Z,6.30
2023-04-27T02:27:13.457Z,6.30
2023-04-27T02:32:15.807Z,6.20
2023-04-27T02:37:17.672Z,6.10
2023-04-27T02:42:19.527Z,6.10
2023-04-27T02:47:21.328Z,6.00
2023-04-27T02:52:23.136Z,5.70
2023-04-27T02:57:24.994Z,5.60
2023-04-27T03:02:27.990Z,5.50
2023-04-27T03:07:32.658Z,5.40
2023-04-27T03:12:34.780Z,5.30
2023-04-27T03:17:36.629Z,5.10
2023-04-27T03:22:38.565Z,5.10
2023-04-27T03:27:40.530Z,5.00
2023-04-27T03:32:42.393Z,5.00
2023-04-27T03:37:46.107Z,4.80
2023-04-27T03:42:48.110Z,4.80
2023-04-27T03:47:50.050Z,4.80
2023-04-27T03:52:51.905Z,4.70
2023-04-27T03:57:53.766Z,4.60
2023-04-27T04:02:55.810Z,4.60
2023-04-27T04:07:58.092Z,4.60
2023-04-27T04:12:59.965Z,4.50
2023-04-27T04:18:01.861Z,4.50
2023-04-27T04:23:03.793Z,4.60
2023-04-27T04:28:05.709Z,4.70
2023-04-27T04:33:08.763Z,4.70
2023-04-27T04:38:11.157Z,4.70
2023-04-27T04:43:13.414Z,4.80
2023-04-27T04:48:16.497Z,4.90
2023-04-27T04:53:18.411Z,5.20
2023-04-27T04:58:20.307Z,5.40
2023-04-27T05:03:22.356Z,5.80
2023-04-27T05:08:24.317Z,6.30
2023-04-27T05:13:26.898Z,6.80
2023-04-27T05:18:28.697Z,7.30
2023-04-27T05:23:30.646Z,7.60
2023-04-27T05:28:32.554Z,7.80
2023-04-27T05:33:34.406Z,8.20
2023-04-27T05:38:40.049Z,8.60
2023-04-27T05:43:41.970Z,8.90
2023-04-27T05:48:44.082Z,9.30
2023-04-27T05:53:46.583Z,9.80
2023-04-27T05:58:48.493Z,10.20
2023-04-27T06:03:50.476Z,10.50
2023-04-27T06:08:52.385Z,11.00
2023-04-27T06:13:54.650Z,11.10
2023-04-27T06:18:56.582Z,11.30
2023-04-27T06:23:58.418Z,11.30
2023-04-27T06:29:00.329Z,11.50
2023-04-27T06:34:02.180Z,11.40
2023-04-27T06:39:04.212Z,11.60
2023-04-27T06:44:06.704Z,11.80
2023-04-27T06:49:08.578Z,12.40
2023-04-27T06:54:10.618Z,12.70
2023-04-27T06:59:12.701Z,12.80
2023-04-27T07:04:15.015Z,12.60
2023-04-27T07:09:26.924Z,12.50
2023-04-27T07:14:29.907Z,12.70
2023-04-27T07:19:32.012Z,12.90
2023-04-27T07:24:35.745Z,13.30
2023-04-27T07:29:38.131Z,13.70
2023-04-27T07:34:52.053Z,14.00
2023-04-27T07:39:55.130Z,14.40
2023-04-27T07:44:57.423Z,15.10
2023-04-27T07:50:00.090Z,15.50
2023-04-27T07:55:01.998Z,15.80
2023-04-27T08:00:07.172Z,16.00
2023-04-27T08:05:10.395Z,15.80
2023-04-27T08:10:22.506Z,15.70
2023-04-27T08:15:24.926Z,15.80
2023-04-27T08:20:26.824Z,15.80
2023-04-27T08:25:28.737Z,16.00
2023-04-27T08:30:30.787Z,15.90
2023-04-27T08:35:32.596Z,15.80
2023-04-27T08:40:34.458Z,15.80
2023-04-27T08:45:36.524Z,16.00
2023-04-27T08:50:38.885Z,15.80
2023-04-27T08:55:41.767Z,15.90
2023-04-27T09:00:46.947Z,16.10
2023-04-27T09:06:00.541Z,16.40
2023-04-27T09:11:06.668Z,16.20
2023-04-27T09:16:09.105Z,16.00
2023-04-27T09:21:10.981Z,16.40
2023-04-27T09:26:25.978Z,16.80
2023-04-27T09:31:32.127Z,17.40
2023-04-27T09:36:34.235Z,17.60
2023-04-27T09:41:36.589Z,17.60
2023-04-27T09:46:38.749Z,17.70
2023-04-27T09:51:40.725Z,17.70
2023-04-27T09:56:55.715Z,17.80
2023-04-27T10:02:02.790Z,17.80
2023-04-27T10:07:15.885Z,17.40
2023-04-27T10:12:17.769Z,17.10
2023-04-27T10:17:33.891Z,16.80
2023-04-27T10:22:40.830Z,16.90
2023-04-27T10:27:42.936Z,17.10
2023-04-27T10:32:56.478Z,17.10
2023-04-27T10:38:10.462Z,17.00
2023-04-27T10:43:17.803Z,16.70
2023-04-27T10:48:19.855Z,16.60
2023-04-27T10:53:21.987Z,16.30
2023-04-27T10:58:25.409Z,16.20
2023-04-27T11:03:28.569Z,16.10
2023-04-27T11:08:31.105Z,16.20
2023-04-27T11:13:33.995Z,16.30
2023-04-27T11:18:37.594Z,16.30
2023-04-27T11:23:40.251Z,16.10
2023-04-27T11:28:46.776Z,16.00
2023-04-27T11:33:49.372Z,16.10
2023-04-27T11:38:51.267Z,17.00
2023-04-27T11:43:53.509Z,17.70
2023-04-27T11:49:01.708Z,18.20
2023-04-27T11:54:07.336Z,18.70
2023-04-27T11:59:20.459Z,19.00
2023-04-27T12:04:22.706Z,18.70
2023-04-27T12:09:24.722Z,19.10
2023-04-27T12:14:26.734Z,19.70
2023-04-27T12:19:28.558Z,19.80
2023-04-27T12:24:32.404Z,19.90
2023-04-27T12:29:34.479Z,20.00
2023-04-27T12:34:36.549Z,19.90
2023-04-27T12:39:38.678Z,19.60
2023-04-27T12:44:41.365Z,19.70
2023-04-27T12:49:43.319Z,19.70
2023-04-27T12:54:47.982Z,20.00
2023-04-27T12:59:49.825Z,20.00
2023-04-27T13:04:51.769Z,19.80
2023-04-27T13:09:53.960Z,19.70
2023-04-27T13:14:56.316Z,19.70
2023-04-27T13:19:58.742Z,19.80
2023-04-27T13:25:01.337Z,19.50
2023-04-27T13:30:03.607Z,18.80
2023-04-27T13:35:06.260Z,18.90
2023-04-27T13:40:21.793Z,18.90
2023-04-27T13:45:23.654Z,18.60
2023-04-27T13:50:25.775Z,18.00
2023-04-27T13:55:27.688Z,17.70
2023-04-27T14:00:33.646Z,17.60
2023-04-27T14:05:35.790Z,17.70
2023-04-27T14:10:38.619Z,17.90
2023-04-27T14:15:41.569Z,18.00
2023-04-27T14:20:44.670Z,17.90
2023-04-27T14:25:46.507Z,17.70
2023-04-27T14:30:48.443Z,17.70
2023-04-27T14:35:52.238Z,17.70
2023-04-27T14:40:54.194Z,17.60
2023-04-27T14:46:02.092Z,17.60
2023-04-27T14:51:15.060Z,17.60
2023-04-27T14:56:16.908Z,17.60
2023-04-27T15:01:18.846Z,17.80
2023-04-27T15:06:21.974Z,17.80
2023-04-27T15:11:33.701Z,17.60
2023-04-27T15:16:35.934Z,17.50
2023-04-27T15:21:38.071Z,17.20
2023-04-27T15:26:40.958Z,17.10
2023-04-27T15:31:42.944Z,16.90
2023-04-27T15:36:44.914Z,16.70
2023-04-27T15:41:46.863Z,16.50
2023-04-27T15:46:48.871Z,16.30
2023-04-27T15:51:51.288Z,16.10
2023-04-27T15:56:53.151Z,15.90
2023-04-27T16:01:55.147Z,15.70
2023-04-27T16:06:57.558Z,15.50
2023-04-27T16:11:59.403Z,15.40
2023-04-27T16:17:04.287Z,15.30
2023-04-27T16:22:06.141Z,15.10
2023-04-27T16:27:07.993Z,15.00
2023-04-27T16:32:11.083Z,14.90
2023-04-27T16:37:13.216Z,14.70
2023-04-27T16:42:19.956Z,14.70
2023-04-27T16:47:22.103Z,14.60
2023-04-27T16:52:24.564Z,14.60
2023-04-27T16:57:26.911Z,14.50
2023-04-27T17:02:28.974Z,14.50
2023-04-27T17:07:32.817Z,14.40
2023-04-27T17:12:38.380Z,14.30
2023-04-27T17:17:41.268Z,14.20
2023-04-27T17:22:43.464Z,14.10
2023-04-27T17:27:45.696Z,13.90
2023-04-27T17:32:47.774Z,13.80
2023-04-27T17:37:49.620Z,13.60
2023-04-27T17:42:51.523Z,13.40
2023-04-27T17:47:53.453Z,13.30
2023-04-27T17:52:55.404Z,13.10
2023-04-27T17:57:57.232Z,12.90
2023-04-27T18:02:59.353Z,12.70
2023-04-27T18:08:01.601Z,12.60
2023-04-27T18:13:03.484Z,12.40
2023-04-27T18:18:11.508Z,12.30
2023-04-27T18:23:15.209Z,12.10
2023-04-27T18:28:17.077Z,11.90
2023-04-27T18:33:21.072Z,11.70
2023-04-27T18:38:22.901Z,11.50
2023-04-27T18:43:25.545Z,11.30
2023-04-27T18:48:27.510Z,11.10
2023-04-27T18:53:29.422Z,11.00
2023-04-27T18:58:31.262Z,10.80
2023-04-27T19:03:33.375Z,10.60
2023-04-27T19:08:35.388Z,10.20
2023-04-27T19:13:46.802Z,10.30
2023-04-27T19:18:48.709Z,10.10
2023-04-27T19:23:51.135Z,9.90
2023-04-27T19:28:53.257Z,9.80
2023-04-27T19:33:55.680Z,9.80
2023-04-27T19:39:05.644Z,9.70
2023-04-27T19:44:07.974Z,9.50
2023-04-27T19:49:09.917Z,9.40
2023-04-27T19:54:11.758Z,9.30
2023-04-27T19:59:14.100Z,9.40
2023-04-27T20:04:18.751Z,9.20
2023-04-27T20:09:21.237Z,9.20
2023-04-27T20:14:23.384Z,9.20
2023-04-27T20:19:25.272Z,9.10
2023-04-27T20:24:28.921Z,9.10
2023-04-27T20:29:31.568Z,9.00
2023-04-27T20:34:33.640Z,8.90
2023-04-27T20:39:35.618Z,8.80
2023-04-27T20:44:39.080Z,8.90
2023-04-27T20:49:41.516Z,8.90
2023-04-27T20:54:43.475Z,8.90
2023-04-27T20:59:45.544Z,8.90
2023-04-27T21:04:47.504Z,8.90
2023-04-27T21:09:49.405Z,8.90
2023-04-27T21:14:51.463Z,8.80
2023-04-27T21:19:53.331Z,8.70
2023-04-27T21:24:55.438Z,8.70
2023-04-27T21:29:58.643Z,8.60
2023-04-27T21:35:01.091Z,8.10
2023-04-27T21:40:04.823Z,8.40
2023-04-27T21:45:07.274Z,8.40
2023-04-27T21:50:09.766Z,8.30
2023-04-27T21:55:12.098Z,8.30
2023-04-27T22:00:14.665Z,8.20
2023-04-27T22:05:16.676Z,8.20
2023-04-27T22:10:18.550Z,8.10
2023-04-27T22:15:21.231Z,8.20
2023-04-27T22:20:23.535Z,8.20
2023-04-27T22:25:26.084Z,8.10
2023-04-27T22:30:28.912Z,8.00
2023-04-27T22:35:31.268Z,7.80
2023-04-27T22:40:33.174Z,7.70
2023-04-27T22:45:36.157Z,7.60
2023-04-27T22:50:40.026Z,7.50
2023-04-27T22:55:41.936Z,7.40
2023-04-27T23:00:44.014Z,7.30
2023-04-27T23:05:45.983Z,7.30
2023-04-27T23:10:47.808Z,7.30
2023-04-27T23:15:49.657Z,7.30
2023-04-27T23:20:57.825Z,7.10
2023-04-27T23:26:00.156Z,7.10
2023-04-27T23:31:02.064Z,6.90
2023-04-27T23:36:04.597Z,6.80
2023-04-27T23:41:06.491Z,6.80
2023-04-27T23:46:09.694Z,6.60
2023-04-27T23:51:11.596Z,6.40
2023-04-27T23:56:19.922Z,6.30
